Time;durP1;ratioP1;P1;durP2;ratioP2;P2;SDS_P1;SDS_P2;PMS_P1;PMS_P2;Temp;Humidity;BMP_temperature;BMP_pressure;BME280_temperature;BME280_humidity;BME280_pressure;Samples;Min_cycle;Max_cycle;Signal;HPM_P1;HPM_P2
2021/07/29 00:01:00;;;;;;;;;;;13.30;81.30;;;;;;5092125;28;20257;-65
2021/07/29 00:03:27;;;;;;;;;;;13.30;80.10;;;;;;5092075;28;20385;-65
2021/07/29 00:05:53;;;;;;;;;;;13.30;80.40;;;;;;5091717;28;19950;-67
2021/07/29 00:08:20;;;;;;;;;;;13.30;80.20;;;;;;5091907;28;19908;-66
2021/07/29 00:10:48;;;;;;;;;;;13.40;80.30;;;;;;5092137;28;19915;-66
2021/07/29 00:13:15;;;;;;;;;;;13.40;80.00;;;;;;5092070;28;20269;-65
2021/07/29 00:15:41;;;;;;;;;;;13.40;79.20;;;;;;5095138;28;20281;-65
2021/07/29 00:20:35;;;;;;;;;;;13.50;79.60;;;;;;5096026;28;19955;-64
2021/07/29 00:23:02;;;;;;;;;;;13.50;80.20;;;;;;5095887;28;19916;-64
2021/07/29 00:25:29;;;;;;;;;;;13.60;78.60;;;;;;5096088;28;19915;-67
2021/07/29 00:27:56;;;;;;;;;;;13.70;79.20;;;;;;5095905;28;19908;-66
2021/07/29 00:30:23;;;;;;;;;;;13.80;78.60;;;;;;5096239;28;19919;-67
2021/07/29 00:32:53;;;;;;;;;;;13.80;78.30;;;;;;5096003;28;19999;-65
2021/07/29 00:35:20;;;;;;;;;;;13.80;78.60;;;;;;5095775;28;19909;-67
2021/07/29 00:37:49;;;;;;;;;;;13.80;78.20;;;;;;5095551;28;19908;-67
2021/07/29 00:40:16;;;;;;;;;;;13.90;76.80;;;;;;5095633;28;20872;-65
2021/07/29 00:42:43;;;;;;;;;;;13.90;77.60;;;;;;5094168;28;20282;-64
2021/07/29 00:45:10;;;;;;;;;;;14.00;77.30;;;;;;5095433;28;19920;-67
2021/07/29 00:47:41;;;;;;;;;;;14.00;77.30;;;;;;5095367;28;19982;-67
2021/07/29 00:50:10;;;;;;;;;;;14.00;77.80;;;;;;5095501;28;19995;-68
2021/07/29 00:52:36;;;;;;;;;;;14.00;77.20;;;;;;5095357;28;20300;-67
2021/07/29 00:55:03;;;;;;;;;;;14.10;76.40;;;;;;5095471;28;19923;-67
2021/07/29 00:57:34;;;;;;;;;;;14.10;76.90;;;;;;5095315;28;19908;-66
2021/07/29 01:00:01;;;;;;;;;;;14.10;76.80;;;;;;5095486;28;19908;-65
2021/07/29 01:02:28;;;;;;;;;;;14.10;76.60;;;;;;5095443;28;20527;-63
2021/07/29 01:04:55;;;;;;;;;;;14.20;77.40;;;;;;5095041;28;19970;-66
2021/07/29 01:07:22;;;;;;;;;;;14.30;78.30;;;;;;5095104;28;20057;-63
2021/07/29 01:09:48;;;;;;;;;;;14.50;75.40;;;;;;5094670;28;19914;-66
2021/07/29 01:12:15;;;;;;;;;;;14.90;74.20;;;;;;5093825;28;19908;-65
2021/07/29 01:14:42;;;;;;;;;;;15.20;72.50;;;;;;5094974;28;19908;-67
2021/07/29 01:17:08;;;;;;;;;;;15.50;72.00;;;;;;5095049;28;19908;-66
2021/07/29 01:19:37;;;;;;;;;;;15.80;71.10;;;;;;5094805;28;19908;-67
2021/07/29 01:22:04;;;;;;;;;;;16.20;69.10;;;;;;5093528;28;19908;-66
2021/07/29 01:24:31;;;;;;;;;;;16.40;68.40;;;;;;5094965;28;19924;-67
2021/07/29 01:26:57;;;;;;;;;;;16.30;66.90;;;;;;5094495;28;19915;-66
2021/07/29 01:29:24;;;;;;;;;;;16.20;67.60;;;;;;5094796;28;20305;-67
2021/07/29 01:31:54;;;;;;;;;;;16.00;66.60;;;;;;5094127;28;19965;-66
2021/07/29 01:34:21;;;;;;;;;;;15.80;65.90;;;;;;5094525;28;19916;-67
2021/07/29 01:36:48;;;;;;;;;;;15.60;67.20;;;;;;5094419;28;19961;-65
2021/07/29 01:39:18;;;;;;;;;;;15.50;67.50;;;;;;5093362;28;19908;-66
2021/07/29 01:41:45;;;;;;;;;;;15.60;69.00;;;;;;5094368;28;19914;-66
2021/07/29 01:44:12;;;;;;;;;;;15.50;67.60;;;;;;5094080;28;20011;-65
2021/07/29 01:46:39;;;;;;;;;;;15.40;67.70;;;;;;5093376;28;19909;-63
2021/07/29 01:49:09;;;;;;;;;;;15.40;67.30;;;;;;5094517;28;19955;-65
2021/07/29 01:51:36;;;;;;;;;;;15.40;68.40;;;;;;5093218;28;19912;-66
2021/07/29 01:54:03;;;;;;;;;;;15.30;67.40;;;;;;5094468;28;20015;-66
2021/07/29 01:56:30;;;;;;;;;;;15.20;66.80;;;;;;5094298;28;19908;-66
2021/07/29 01:58:56;;;;;;;;;;;15.30;67.00;;;;;;5094047;28;20358;-67
2021/07/29 02:07:29;;;;;;;;;;;15.30;65.80;;;;;;5092501;28;19919;-67
2021/07/29 02:09:56;;;;;;;;;;;15.40;66.80;;;;;;5092298;28;19915;-64
2021/07/29 02:12:22;;;;;;;;;;;15.30;65.40;;;;;;5092669;28;19919;-66
2021/07/29 02:14:49;;;;;;;;;;;15.30;65.40;;;;;;5092569;28;19908;-65
2021/07/29 02:17:19;;;;;;;;;;;15.30;65.70;;;;;;5093387;28;20046;-65
2021/07/29 02:19:51;;;;;;;;;;;15.40;64.10;;;;;;5093200;28;19908;-65
2021/07/29 02:22:18;;;;;;;;;;;15.40;63.50;;;;;;5093313;28;19993;-64
2021/07/29 02:24:45;;;;;;;;;;;15.30;64.50;;;;;;5093692;28;20377;-66
2021/07/29 02:27:12;;;;;;;;;;;15.40;64.20;;;;;;5093438;28;20027;-64
2021/07/29 02:29:39;;;;;;;;;;;15.40;64.30;;;;;;5093388;28;20347;-66
2021/07/29 02:32:06;;;;;;;;;;;15.40;63.50;;;;;;5093523;28;19908;-63
2021/07/29 02:34:32;;;;;;;;;;;15.50;63.00;;;;;;5093521;28;19916;-63
2021/07/29 02:36:59;;;;;;;;;;;15.40;63.70;;;;;;5092548;28;19909;-65
2021/07/29 02:39:26;;;;;;;;;;;15.50;63.70;;;;;;5093283;28;19908;-65
2021/07/29 02:41:52;;;;;;;;;;;15.50;63.60;;;;;;5093142;28;20327;-64
2021/07/29 02:44:19;;;;;;;;;;;15.50;62.90;;;;;;5093038;28;19926;-66
2021/07/29 02:46:46;;;;;;;;;;;15.50;63.00;;;;;;5093449;28;19908;-63
2021/07/29 02:49:12;;;;;;;;;;;15.50;64.70;;;;;;5092949;28;19912;-65
2021/07/29 02:51:39;;;;;;;;;;;15.50;62.20;;;;;;5092930;28;19961;-65
2021/07/29 02:54:06;;;;;;;;;;;15.50;62.70;;;;;;5093006;28;19915;-66
2021/07/29 02:56:32;;;;;;;;;;;15.50;62.30;;;;;;5092958;28;20023;-67
2021/07/29 02:58:59;;;;;;;;;;;15.50;61.30;;;;;;5092685;28;20335;-66
2021/07/29 03:01:26;;;;;;;;;;;15.60;61.30;;;;;;5092831;28;19927;-65
2021/07/29 03:03:53;;;;;;;;;;;15.60;61.80;;;;;;5092364;28;19920;-65
2021/07/29 03:06:20;;;;;;;;;;;15.60;62.30;;;;;;5093043;28;19911;-64
2021/07/29 03:08:47;;;;;;;;;;;15.60;62.20;;;;;;5092946;28;19930;-64
2021/07/29 03:11:13;;;;;;;;;;;15.60;62.10;;;;;;5092901;28;19908;-65
2021/07/29 03:13:40;;;;;;;;;;;15.80;63.00;;;;;;5092604;28;20373;-63
2021/07/29 03:16:07;;;;;;;;;;;15.90;60.40;;;;;;5092908;28;19995;-63
2021/07/29 03:18:33;;;;;;;;;;;15.90;59.50;;;;;;5125595;27;19923;-64
2021/07/29 03:21:00;;;;;;;;;;;16.00;59.40;;;;;;5125423;27;19908;-63
2021/07/29 03:23:27;;;;;;;;;;;16.00;58.50;;;;;;5092549;28;19931;-66
2021/07/29 03:25:54;;;;;;;;;;;15.90;59.00;;;;;;5092367;28;20069;-64
2021/07/29 03:28:21;;;;;;;;;;;16.00;59.60;;;;;;5092635;28;20007;-64
2021/07/29 03:30:48;;;;;;;;;;;15.90;60.10;;;;;;5084071;28;19970;-65
2021/07/29 03:33:15;;;;;;;;;;;15.90;60.00;;;;;;5071768;28;19967;-64
2021/07/29 03:35:42;;;;;;;;;;;16.00;61.40;;;;;;5071712;28;20267;-64
2021/07/29 03:38:08;;;;;;;;;;;16.00;60.40;;;;;;5071883;28;19912;-66
2021/07/29 03:40:36;;;;;;;;;;;16.00;59.40;;;;;;5071383;28;19913;-66
2021/07/29 03:43:03;;;;;;;;;;;16.00;60.80;;;;;;5071735;28;19916;-65
2021/07/29 03:45:30;;;;;;;;;;;16.00;59.60;;;;;;5071602;28;19921;-64
2021/07/29 03:47:57;;;;;;;;;;;16.00;61.10;;;;;;5072436;28;20256;-64
2021/07/29 03:50:25;;;;;;;;;;;16.00;61.30;;;;;;5074760;28;19932;-64
2021/07/29 03:52:51;;;;;;;;;;;16.00;60.30;;;;;;5076268;28;19916;-65
2021/07/29 03:55:18;;;;;;;;;;;16.00;60.00;;;;;;5074656;28;19943;-64
2021/07/29 03:57:45;;;;;;;;;;;16.00;59.60;;;;;;5076147;28;20324;-65
2021/07/29 04:00:12;;;;;;;;;;;16.10;59.30;;;;;;5076023;28;19956;-64
2021/07/29 04:02:39;;;;;;;;;;;16.20;57.70;;;;;;5075930;28;19995;-64
2021/07/29 04:05:06;;;;;;;;;;;16.10;57.70;;;;;;5076046;28;20007;-65
2021/07/29 04:07:33;;;;;;;;;;;16.10;57.40;;;;;;5075708;28;19920;-65
2021/07/29 04:10:00;;;;;;;;;;;16.20;59.00;;;;;;5075795;28;19915;-65
2021/07/29 04:12:26;;;;;;;;;;;16.20;58.90;;;;;;5075899;28;19958;-68
2021/07/29 04:14:53;;;;;;;;;;;16.20;57.80;;;;;;5075824;28;20302;-67
2021/07/29 04:17:20;;;;;;;;;;;16.20;56.20;;;;;;5075800;28;19995;-65
2021/07/29 04:19:47;;;;;;;;;;;16.20;56.60;;;;;;5075220;28;19967;-67
2021/07/29 04:22:13;;;;;;;;;;;16.20;55.70;;;;;;5108088;28;20305;-66
2021/07/29 04:24:40;;;;;;;;;;;16.10;55.20;;;;;;5075690;28;20007;-67
2021/07/29 04:27:07;;;;;;;;;;;16.20;55.70;;;;;;5076032;28;20343;-65
2021/07/29 04:29:37;;;;;;;;;;;16.20;56.70;;;;;;5075710;28;19917;-66
2021/07/29 04:32:04;;;;;;;;;;;16.20;54.90;;;;;;5075574;28;20007;-66
2021/07/29 04:34:42;;;;;;;;;;;16.20;55.00;;;;;;5075335;28;19935;-65
2021/07/29 04:37:08;;;;;;;;;;;16.20;54.90;;;;;;5075564;28;19999;-65
2021/07/29 04:39:37;;;;;;;;;;;16.20;55.10;;;;;;5075272;28;19908;-64
2021/07/29 04:42:04;;;;;;;;;;;16.20;54.50;;;;;;5075348;28;20052;-64
2021/07/29 04:44:31;;;;;;;;;;;16.30;56.50;;;;;;5075183;28;19960;-66
2021/07/29 04:46:58;;;;;;;;;;;16.30;54.60;;;;;;5075185;28;19908;-67
2021/07/29 04:49:24;;;;;;;;;;;16.30;53.70;;;;;;5107649;28;19908;-65
2021/07/29 04:51:51;;;;;;;;;;;16.30;53.00;;;;;;5074986;28;19908;-66
2021/07/29 04:54:18;;;;;;;;;;;16.30;54.50;;;;;;5075236;28;19908;-66
2021/07/29 04:56:44;;;;;;;;;;;16.30;54.90;;;;;;5074958;28;20038;-65
2021/07/29 04:59:11;;;;;;;;;;;16.30;55.50;;;;;;5075148;28;20296;-65
2021/07/29 05:01:38;;;;;;;;;;;16.20;54.30;;;;;;5074057;28;19908;-66
2021/07/29 05:04:05;;;;;;;;;;;16.20;54.70;;;;;;5074795;28;19917;-66
2021/07/29 05:06:32;;;;;;;;;;;16.30;54.40;;;;;;5074828;28;19918;-66
2021/07/29 05:08:59;;;;;;;;;;;16.20;54.70;;;;;;5074818;28;20563;-66
2021/07/29 05:11:25;;;;;;;;;;;16.30;55.80;;;;;;5074819;28;19948;-68
2021/07/29 05:13:53;;;;;;;;;;;16.30;55.30;;;;;;5074034;28;19916;-66
2021/07/29 05:16:20;;;;;;;;;;;16.30;55.50;;;;;;5106964;28;19909;-67
2021/07/29 05:18:46;;;;;;;;;;;16.20;56.10;;;;;;5074582;28;19908;-67
2021/07/29 05:21:13;;;;;;;;;;;16.20;56.20;;;;;;5074638;28;19952;-66
2021/07/29 05:23:39;;;;;;;;;;;16.20;55.80;;;;;;5074283;28;19923;-66
2021/07/29 05:26:06;;;;;;;;;;;16.20;56.10;;;;;;5074563;28;19908;-66
2021/07/29 05:28:33;;;;;;;;;;;16.20;56.80;;;;;;5074598;28;19919;-67
2021/07/29 05:30:59;;;;;;;;;;;16.20;56.90;;;;;;5074536;28;19909;-66
2021/07/29 05:33:26;;;;;;;;;;;16.20;57.20;;;;;;5074378;28;19909;-66
2021/07/29 05:35:53;;;;;;;;;;;16.20;57.00;;;;;;5078859;28;19955;-65
2021/07/29 05:38:19;;;;;;;;;;;16.20;56.70;;;;;;5093862;28;19961;-67
2021/07/29 05:40:46;;;;;;;;;;;16.20;56.20;;;;;;5093954;28;19912;-66
2021/07/29 05:43:12;;;;;;;;;;;16.20;56.90;;;;;;5081655;28;19924;-67
2021/07/29 05:45:39;;;;;;;;;;;16.10;57.20;;;;;;5110618;28;19920;-67
2021/07/29 05:48:09;;;;;;;;;;;16.10;56.80;;;;;;5094040;28;19930;-65
2021/07/29 05:50:35;;;;;;;;;;;16.00;57.10;;;;;;5094282;28;19909;-66
2021/07/29 05:53:02;;;;;;;;;;;16.00;58.50;;;;;;5093971;28;19908;-66
2021/07/29 05:55:29;;;;;;;;;;;16.00;58.70;;;;;;5094337;28;19908;-66
2021/07/29 05:57:55;;;;;;;;;;;16.00;59.00;;;;;;5094148;28;19936;-64
2021/07/29 06:00:22;;;;;;;;;;;16.00;59.60;;;;;;5094125;28;19954;-66
2021/07/29 06:02:49;;;;;;;;;;;16.00;59.60;;;;;;5093954;28;19908;-65
2021/07/29 06:05:15;;;;;;;;;;;16.00;60.00;;;;;;5093979;28;19908;-64
2021/07/29 06:07:42;;;;;;;;;;;15.90;59.80;;;;;;5093769;28;19934;-67
2021/07/29 06:10:10;;;;;;;;;;;15.90;61.00;;;;;;5093919;28;19915;-68
2021/07/29 06:12:37;;;;;;;;;;;15.90;59.60;;;;;;5092764;28;19915;-67
2021/07/29 06:15:05;;;;;;;;;;;15.90;60.30;;;;;;5093812;28;19958;-66
2021/07/29 06:17:34;;;;;;;;;;;15.80;60.40;;;;;;5093415;28;19908;-66
2021/07/29 06:20:10;;;;;;;;;;;15.80;61.40;;;;;;5093588;28;20274;-65
2021/07/29 06:22:36;;;;;;;;;;;15.70;62.60;;;;;;5093607;28;19912;-66
2021/07/29 06:25:08;;;;;;;;;;;15.70;61.10;;;;;;5093615;28;20363;-67
2021/07/29 06:27:36;;;;;;;;;;;15.70;61.60;;;;;;5094206;28;19961;-65
2021/07/29 06:30:04;;;;;;;;;;;15.60;61.20;;;;;;5094489;28;20003;-67
2021/07/29 06:32:31;;;;;;;;;;;15.50;62.10;;;;;;5097288;28;19915;-64
2021/07/29 06:34:58;;;;;;;;;;;15.50;61.50;;;;;;5094583;28;19908;-65
2021/07/29 06:37:24;;;;;;;;;;;15.60;61.50;;;;;;5093917;28;20350;-66
2021/07/29 06:39:51;;;;;;;;;;;15.60;61.10;;;;;;5093479;28;20327;-64
2021/07/29 06:42:18;;;;;;;;;;;15.60;62.10;;;;;;5093940;28;20329;-64
2021/07/29 06:44:44;;;;;;;;;;;15.60;63.70;;;;;;5093277;28;20319;-64
2021/07/29 06:47:14;;;;;;;;;;;15.50;62.20;;;;;;5092896;28;19908;-64
2021/07/29 06:49:41;;;;;;;;;;;15.50;62.30;;;;;;5093254;28;19954;-62
2021/07/29 06:52:10;;;;;;;;;;;15.50;62.90;;;;;;5090987;28;19915;-64
2021/07/29 06:54:37;;;;;;;;;;;15.50;63.10;;;;;;5091144;28;19912;-63
2021/07/29 06:57:04;;;;;;;;;;;15.40;62.80;;;;;;5091047;28;19920;-66
2021/07/29 06:59:30;;;;;;;;;;;15.40;63.80;;;;;;5090759;28;19913;-67
2021/07/29 07:01:57;;;;;;;;;;;15.40;63.30;;;;;;5090755;28;20355;-67
2021/07/29 07:04:24;;;;;;;;;;;15.30;63.90;;;;;;5090290;28;20026;-64
2021/07/29 07:06:50;;;;;;;;;;;15.30;63.80;;;;;;5089480;28;20266;-65
2021/07/29 07:09:17;;;;;;;;;;;15.20;63.10;;;;;;5090930;28;19987;-66
2021/07/29 07:11:44;;;;;;;;;;;15.30;63.30;;;;;;5090495;28;20332;-64
2021/07/29 07:14:11;;;;;;;;;;;15.30;62.70;;;;;;5090520;28;19908;-64
2021/07/29 07:16:38;;;;;;;;;;;15.20;62.90;;;;;;5090866;28;19909;-64
2021/07/29 07:19:08;;;;;;;;;;;15.20;62.50;;;;;;5090272;28;19935;-66
2021/07/29 07:21:37;;;;;;;;;;;15.20;62.60;;;;;;5090635;28;19908;-64
2021/07/29 07:24:04;;;;;;;;;;;15.10;63.60;;;;;;5072849;28;19920;-64
2021/07/29 07:26:31;;;;;;;;;;;15.10;63.60;;;;;;5070313;28;19912;-66
2021/07/29 07:28:57;;;;;;;;;;;15.00;64.20;;;;;;5070033;28;19947;-66
2021/07/29 07:31:24;;;;;;;;;;;14.90;63.80;;;;;;5070435;28;20325;-66
2021/07/29 07:33:51;;;;;;;;;;;14.90;65.30;;;;;;5069871;28;19955;-65
2021/07/29 07:36:20;;;;;;;;;;;14.90;64.50;;;;;;5068703;28;20277;-63
2021/07/29 07:38:49;;;;;;;;;;;14.80;64.60;;;;;;5070345;28;19920;-64
2021/07/29 07:41:17;;;;;;;;;;;14.80;65.00;;;;;;5070168;28;20038;-65
2021/07/29 07:43:44;;;;;;;;;;;14.70;65.20;;;;;;5069290;28;19998;-65
2021/07/29 07:46:14;;;;;;;;;;;14.70;65.70;;;;;;5069465;28;20278;-64
2021/07/29 07:48:41;;;;;;;;;;;14.70;66.10;;;;;;5069758;28;20375;-66
2021/07/29 07:51:07;;;;;;;;;;;14.60;66.60;;;;;;5070315;28;19952;-64
2021/07/29 07:53:34;;;;;;;;;;;14.50;66.20;;;;;;5069309;28;20259;-66
2021/07/29 07:56:04;;;;;;;;;;;14.50;66.70;;;;;;5070011;28;19916;-64
2021/07/29 07:58:32;;;;;;;;;;;14.50;66.80;;;;;;5070084;28;20473;-65
2021/07/29 08:00:58;;;;;;;;;;;14.50;68.00;;;;;;5070391;28;19913;-63
2021/07/29 08:03:25;;;;;;;;;;;14.40;67.90;;;;;;5069425;28;20011;-66
2021/07/29 08:05:52;;;;;;;;;;;14.40;67.60;;;;;;5069851;28;19908;-65
2021/07/29 08:08:18;;;;;;;;;;;14.40;67.90;;;;;;5069866;28;19909;-64
2021/07/29 08:10:48;;;;;;;;;;;14.40;67.90;;;;;;5069864;28;19994;-64
2021/07/29 08:13:15;;;;;;;;;;;14.30;67.70;;;;;;5069973;28;19909;-65
2021/07/29 08:15:41;;;;;;;;;;;14.30;67.90;;;;;;5069544;28;20432;-65
2021/07/29 08:18:08;;;;;;;;;;;14.30;67.10;;;;;;5069824;28;19966;-66
2021/07/29 08:20:34;;;;;;;;;;;14.30;66.80;;;;;;5069724;28;20726;-64
2021/07/29 08:23:01;;;;;;;;;;;14.20;66.80;;;;;;5069825;28;19909;-64
2021/07/29 08:25:28;;;;;;;;;;;14.20;67.00;;;;;;5069635;28;19913;-66
2021/07/29 08:27:54;;;;;;;;;;;14.10;67.30;;;;;;5069220;28;19908;-67
2021/07/29 08:30:21;;;;;;;;;;;14.20;66.90;;;;;;5069708;28;19953;-65
2021/07/29 08:32:48;;;;;;;;;;;14.10;67.10;;;;;;5069292;28;19961;-65
2021/07/29 08:35:15;;;;;;;;;;;14.20;67.40;;;;;;5070392;28;19912;-67
2021/07/29 08:37:44;;;;;;;;;;;14.10;68.40;;;;;;5073046;28;20275;-67
2021/07/29 08:40:12;;;;;;;;;;;14.20;67.80;;;;;;5073418;28;19909;-66
2021/07/29 08:42:39;;;;;;;;;;;14.10;67.90;;;;;;5073072;28;20519;-66
2021/07/29 08:45:06;;;;;;;;;;;14.10;68.00;;;;;;5072978;28;19935;-66
2021/07/29 08:47:32;;;;;;;;;;;14.10;68.20;;;;;;5072839;28;19924;-64
2021/07/29 08:50:04;;;;;;;;;;;14.10;68.70;;;;;;5073121;28;19920;-65
2021/07/29 08:52:31;;;;;;;;;;;14.00;68.80;;;;;;5073040;28;19915;-64
2021/07/29 08:54:58;;;;;;;;;;;14.00;68.90;;;;;;5072905;28;20360;-63
2021/07/29 08:57:29;;;;;;;;;;;13.90;69.10;;;;;;5072925;28;19909;-65
2021/07/29 08:59:55;;;;;;;;;;;13.90;69.50;;;;;;5072876;28;19917;-65
2021/07/29 09:02:23;;;;;;;;;;;13.90;69.90;;;;;;5072797;28;19915;-68
2021/07/29 09:05:09;;;;;;;;;;;13.90;70.00;;;;;;5073087;28;19920;-65
2021/07/29 09:07:36;;;;;;;;;;;13.80;70.50;;;;;;5074769;28;19978;-65
2021/07/29 09:10:08;;;;;;;;;;;13.80;70.50;;;;;;5074821;28;19935;-65
2021/07/29 09:12:34;;;;;;;;;;;13.80;70.50;;;;;;5074715;28;19931;-66
2021/07/29 09:15:17;;;;;;;;;;;13.70;70.20;;;;;;5074848;28;19935;-62
2021/07/29 09:17:46;;;;;;;;;;;13.70;70.20;;;;;;5074301;28;19912;-66
2021/07/29 09:20:19;;;;;;;;;;;13.70;70.70;;;;;;5074663;28;20011;-66
2021/07/29 09:22:50;;;;;;;;;;;13.70;70.90;;;;;;5074581;28;19947;-66
2021/07/29 09:25:17;;;;;;;;;;;13.60;71.20;;;;;;5074563;28;19920;-66
2021/07/29 09:27:45;;;;;;;;;;;13.70;71.00;;;;;;5074618;28;19999;-66
2021/07/29 09:30:12;;;;;;;;;;;13.60;71.60;;;;;;5074569;28;20329;-65
2021/07/29 09:32:51;;;;;;;;;;;13.50;71.60;;;;;;5074471;28;19916;-64
2021/07/29 09:35:30;;;;;;;;;;;13.50;72.30;;;;;;5074591;28;19908;-65
2021/07/29 09:37:58;;;;;;;;;;;13.50;72.50;;;;;;5074562;28;19908;-67
2021/07/29 09:40:25;;;;;;;;;;;13.40;72.70;;;;;;5074630;28;20343;-67
2021/07/29 09:43:11;;;;;;;;;;;13.40;72.70;;;;;;5074324;28;19908;-66
2021/07/29 09:45:38;;;;;;;;;;;13.40;73.00;;;;;;5053978;28;19927;-67
2021/07/29 09:48:09;;;;;;;;;;;13.40;72.90;;;;;;5053918;28;20270;-67
2021/07/29 09:50:37;;;;;;;;;;;13.30;73.50;;;;;;5054550;28;19909;-67
2021/07/29 09:53:04;;;;;;;;;;;13.30;73.00;;;;;;5054032;28;19919;-67
2021/07/29 09:55:31;;;;;;;;;;;13.30;73.30;;;;;;5054078;28;19916;-64
2021/07/29 09:58:00;;;;;;;;;;;13.30;73.50;;;;;;5054074;28;19909;-64
2021/07/29 10:00:27;;;;;;;;;;;13.30;73.70;;;;;;5053767;28;19909;-68
2021/07/29 10:02:54;;;;;;;;;;;13.20;74.40;;;;;;5053692;28;20015;-66
2021/07/29 10:05:27;;;;;;;;;;;13.20;74.60;;;;;;5053817;28;19916;-67
2021/07/29 10:07:55;;;;;;;;;;;13.10;75.60;;;;;;5053684;28;19916;-66
2021/07/29 10:10:25;;;;;;;;;;;13.10;75.20;;;;;;5053768;28;19959;-64
2021/07/29 10:12:52;;;;;;;;;;;13.00;75.30;;;;;;5053216;28;19931;-66
2021/07/29 10:15:38;;;;;;;;;;;13.00;75.40;;;;;;5053633;28;19918;-66
2021/07/29 10:18:06;;;;;;;;;;;13.00;75.00;;;;;;5052993;28;20343;-67
2021/07/29 10:20:33;;;;;;;;;;;13.00;76.00;;;;;;5053587;28;19913;-66
2021/07/29 10:23:23;;;;;;;;;;;12.90;75.60;;;;;;5053450;28;19920;-64
2021/07/29 10:25:52;;;;;;;;;;;12.90;75.90;;;;;;5047543;28;19913;-64
2021/07/29 10:28:29;;;;;;;;;;;12.90;75.90;;;;;;5053526;28;19916;-63
2021/07/29 10:31:02;;;;;;;;;;;12.80;76.60;;;;;;5053293;28;19908;-63
2021/07/29 10:33:29;;;;;;;;;;;12.80;76.00;;;;;;5052671;28;20368;-65
2021/07/29 10:35:56;;;;;;;;;;;12.70;76.30;;;;;;5053024;28;19908;-64
2021/07/29 10:38:41;;;;;;;;;;;12.70;77.10;;;;;;5053000;28;19913;-65
2021/07/29 10:41:08;;;;;;;;;;;12.70;76.80;;;;;;5053129;28;20288;-65
2021/07/29 10:43:34;;;;;;;;;;;12.70;76.60;;;;;;5056426;28;19927;-64
2021/07/29 10:46:01;;;;;;;;;;;12.70;76.40;;;;;;5072971;28;20336;-64
2021/07/29 10:49:12;;;;;;;;;;;12.70;76.70;;;;;;5072476;28;20053;-65
2021/07/29 10:51:35;;;;;;;;;;;12.60;76.90;;;;;;5073761;28;20256;-63
2021/07/29 10:54:02;;;;;;;;;;;12.60;77.90;;;;;;5072847;28;20018;-65
2021/07/29 10:56:29;;;;;;;;;;;12.70;78.40;;;;;;5072862;28;20290;-64
2021/07/29 10:58:58;;;;;;;;;;;12.70;78.30;;;;;;5072282;28;20244;-65
2021/07/29 11:01:48;;;;;;;;;;;12.70;77.40;;;;;;5072779;28;19915;-64
2021/07/29 11:04:15;;;;;;;;;;;12.60;77.60;;;;;;5069184;28;20011;-66
2021/07/29 11:06:45;;;;;;;;;;;12.60;77.70;;;;;;5072863;28;19935;-65
2021/07/29 11:09:15;;;;;;;;;;;12.60;77.50;;;;;;5072896;28;20366;-65
2021/07/29 11:11:43;;;;;;;;;;;12.50;77.50;;;;;;5071658;28;19909;-66
2021/07/29 11:14:10;;;;;;;;;;;12.50;77.70;;;;;;5072510;28;19941;-65
2021/07/29 11:16:37;;;;;;;;;;;12.40;77.50;;;;;;5072638;28;20266;-64
2021/07/29 11:19:05;;;;;;;;;;;12.40;78.10;;;;;;5072154;28;20278;-64
2021/07/29 11:21:32;;;;;;;;;;;12.40;78.00;;;;;;5072332;28;19916;-67
2021/07/29 11:23:59;;;;;;;;;;;12.40;78.40;;;;;;5072281;28;19977;-64
2021/07/29 11:26:26;;;;;;;;;;;12.40;78.20;;;;;;5072427;28;20355;-70
2021/07/29 11:29:24;;;;;;;;;;;12.30;78.60;;;;;;5072682;28;19966;-66
2021/07/29 11:31:55;;;;;;;;;;;12.30;78.60;;;;;;5059429;28;20055;-63
2021/07/29 11:34:31;;;;;;;;;;;12.20;79.10;;;;;;5071998;28;19908;-62
2021/07/29 11:36:58;;;;;;;;;;;12.20;79.70;;;;;;5072540;28;19987;-65
2021/07/29 11:39:25;;;;;;;;;;;12.20;80.30;;;;;;5072595;28;19919;-66
2021/07/29 11:41:58;;;;;;;;;;;12.20;80.10;;;;;;5072250;28;19912;-64
2021/07/29 11:44:41;;;;;;;;;;;12.20;79.20;;;;;;5072040;28;19928;-63
2021/07/29 11:47:08;;;;;;;;;;;12.20;79.80;;;;;;5070096;28;19909;-63
2021/07/29 11:49:48;;;;;;;;;;;12.20;79.70;;;;;;5072079;28;19970;-63
2021/07/29 11:52:15;;;;;;;;;;;12.20;79.80;;;;;;5072251;28;20378;-63
2021/07/29 11:54:42;;;;;;;;;;;12.20;80.20;;;;;;5071854;28;20235;-63
2021/07/29 11:57:09;;;;;;;;;;;12.10;79.70;;;;;;5072278;28;19909;-65
2021/07/29 11:59:36;;;;;;;;;;;12.00;79.90;;;;;;5071932;28;19955;-65
2021/07/29 12:02:07;;;;;;;;;;;12.00;80.10;;;;;;5072043;28;19996;-64
2021/07/29 12:04:34;;;;;;;;;;;12.00;80.00;;;;;;5071978;28;19926;-64
2021/07/29 12:07:01;;;;;;;;;;;12.00;80.70;;;;;;5072214;28;19987;-64
2021/07/29 12:09:28;;;;;;;;;;;12.00;79.80;;;;;;5072004;28;19908;-65
2021/07/29 12:11:55;;;;;;;;;;;12.00;79.90;;;;;;5075594;28;19909;-65
2021/07/29 12:14:22;;;;;;;;;;;12.00;80.60;;;;;;5076458;28;19909;-64
2021/07/29 12:16:50;;;;;;;;;;;12.00;81.00;;;;;;5080978;28;19935;-65
2021/07/29 12:19:17;;;;;;;;;;;12.00;80.20;;;;;;5089751;28;20327;-64
2021/07/29 12:21:44;;;;;;;;;;;11.90;80.20;;;;;;5095837;28;19915;-63
2021/07/29 12:24:11;;;;;;;;;;;11.90;80.30;;;;;;5095968;28;19963;-64
2021/07/29 12:26:39;;;;;;;;;;;11.80;81.10;;;;;;5095988;28;19911;-64
2021/07/29 12:29:05;;;;;;;;;;;11.80;80.50;;;;;;5096024;28;20395;-63
2021/07/29 12:31:33;;;;;;;;;;;11.80;80.80;;;;;;5095685;28;19908;-63
2021/07/29 12:34:01;;;;;;;;;;;11.70;81.30;;;;;;5096071;28;19908;-64
2021/07/29 12:36:43;;;;;;;;;;;11.70;81.50;;;;;;5095955;28;19915;-63
2021/07/29 12:39:11;;;;;;;;;;;11.70;82.20;;;;;;5095710;28;19919;-65
2021/07/29 12:41:38;;;;;;;;;;;11.70;81.70;;;;;;5095508;28;19950;-65
2021/07/29 12:44:09;;;;;;;;;;;11.70;82.60;;;;;;5095493;28;19927;-64
2021/07/29 12:46:35;;;;;;;;;;;11.70;82.40;;;;;;5095486;28;19950;-62
2021/07/29 12:49:02;;;;;;;;;;;11.70;81.90;;;;;;5095756;28;20255;-64
2021/07/29 12:51:39;;;;;;;;;;;11.70;82.40;;;;;;5095646;28;19908;-67
2021/07/29 12:54:06;;;;;;;;;;;11.60;82.60;;;;;;5095457;28;20374;-66
2021/07/29 12:56:33;;;;;;;;;;;11.70;82.80;;;;;;5095506;28;19912;-66
2021/07/29 12:59:00;;;;;;;;;;;11.70;82.30;;;;;;5095527;28;20064;-67
2021/07/29 13:01:26;;;;;;;;;;;11.60;82.40;;;;;;5095400;28;19959;-64
2021/07/29 13:03:53;;;;;;;;;;;11.50;82.90;;;;;;5095182;28;19916;-64
2021/07/29 13:06:20;;;;;;;;;;;11.50;83.00;;;;;;5095182;28;19912;-63
2021/07/29 13:08:47;;;;;;;;;;;11.50;82.40;;;;;;5095272;28;19908;-66
2021/07/29 13:11:14;;;;;;;;;;;11.50;83.20;;;;;;5095073;28;19962;-63
2021/07/29 13:13:42;;;;;;;;;;;11.50;82.40;;;;;;5095034;28;19951;-67
2021/07/29 13:16:09;;;;;;;;;;;11.50;82.40;;;;;;5094964;28;19915;-65
2021/07/29 13:18:36;;;;;;;;;;;11.50;82.70;;;;;;5095204;28;19912;-66
2021/07/29 13:21:03;;;;;;;;;;;11.40;82.80;;;;;;5094584;28;19999;-64
2021/07/29 13:23:30;;;;;;;;;;;11.50;83.40;;;;;;5094642;28;19912;-63
2021/07/29 13:25:57;;;;;;;;;;;11.50;83.20;;;;;;5094763;28;19999;-65
2021/07/29 13:28:24;;;;;;;;;;;11.50;83.20;;;;;;5094857;28;19934;-66
2021/07/29 13:30:50;;;;;;;;;;;11.50;83.40;;;;;;5094742;28;20018;-66
2021/07/29 13:33:18;;;;;;;;;;;11.60;83.20;;;;;;5094806;28;19912;-65
2021/07/29 13:35:45;;;;;;;;;;;11.50;83.50;;;;;;5094671;28;19948;-66
2021/07/29 13:38:12;;;;;;;;;;;11.50;83.30;;;;;;5095156;28;19908;-65
2021/07/29 13:40:39;;;;;;;;;;;11.40;83.40;;;;;;5094964;28;19959;-67
2021/07/29 13:43:06;;;;;;;;;;;11.40;83.60;;;;;;5093907;28;19915;-66
2021/07/29 13:45:32;;;;;;;;;;;11.30;83.50;;;;;;5093560;28;19973;-65
2021/07/29 13:48:00;;;;;;;;;;;11.30;83.70;;;;;;5094167;28;19915;-64
2021/07/29 13:50:30;;;;;;;;;;;11.30;84.10;;;;;;5094424;28;19916;-65
2021/07/29 13:52:59;;;;;;;;;;;11.30;84.60;;;;;;5094387;28;20003;-67
2021/07/29 13:55:26;;;;;;;;;;;11.30;85.00;;;;;;5094414;28;19915;-64
2021/07/29 13:57:52;;;;;;;;;;;11.30;83.80;;;;;;5094107;28;20248;-63
2021/07/29 14:00:19;;;;;;;;;;;11.30;85.20;;;;;;5094175;28;20370;-64
2021/07/29 14:02:46;;;;;;;;;;;11.30;84.40;;;;;;5094179;28;19915;-63
2021/07/29 14:05:14;;;;;;;;;;;11.30;84.60;;;;;;5094156;28;19974;-64
2021/07/29 14:07:41;;;;;;;;;;;11.20;84.20;;;;;;5093968;28;20263;-63
2021/07/29 14:10:09;;;;;;;;;;;11.30;84.80;;;;;;5094082;28;19915;-63
2021/07/29 14:12:36;;;;;;;;;;;11.20;85.40;;;;;;5093957;28;19908;-64
2021/07/29 14:15:02;;;;;;;;;;;11.30;84.40;;;;;;5093750;28;19953;-64
2021/07/29 14:20:10;;;;;;;;;;;11.20;85.70;;;;;;5093996;28;19916;-64
2021/07/29 14:23:00;;;;;;;;;;;11.20;84.50;;;;;;5093894;28;20370;-64
2021/07/29 14:25:29;;;;;;;;;;;11.20;84.50;;;;;;5093800;28;19916;-64
2021/07/29 14:27:56;;;;;;;;;;;11.20;84.90;;;;;;5092389;28;19914;-63
2021/07/29 14:30:23;;;;;;;;;;;11.10;84.90;;;;;;5092181;28;19919;-64
2021/07/29 14:32:50;;;;;;;;;;;11.10;85.20;;;;;;5092894;28;19931;-64